Time;durP1;ratioP1;P1;durP2;ratioP2;P2;SDS_P1;SDS_P2;PMS_P1;PMS_P2;Temp;Humidity;BMP_temperature;BMP_pressure;BME280_temperature;BME280_humidity;BME280_pressure;Samples;Min_cycle;Max_cycle;Signal;HPM_P1;HPM_P2
2021/12/04 00:01:44;;;;;;;0.28;0.10;;;20.10;53.80;;;;;;5040832;28;20047;-50
2021/12/04 00:04:12;;;;;;;0.10;0.10;;;20.10;53.70;;;;;;5047636;28;20045;-46
2021/12/04 00:06:40;;;;;;;2.15;0.10;;;20.10;53.70;;;;;;5038381;28;20887;-48
2021/12/04 00:09:09;;;;;;;0.10;0.00;;;20.10;53.70;;;;;;5043280;28;20539;-47
2021/12/04 00:11:40;;;;;;;0.52;0.20;;;20.20;53.80;;;;;;5051689;28;20417;-51
2021/12/04 00:14:07;;;;;;;0.10;0.10;;;20.20;53.80;;;;;;5041475;28;20051;-49
2021/12/04 00:16:34;;;;;;;0.20;0.10;;;20.20;53.80;;;;;;5045182;28;20060;-51
2021/12/04 00:19:01;;;;;;;0.10;0.00;;;20.20;53.90;;;;;;5041874;28;20044;-50
2021/12/04 00:21:30;;;;;;;0.28;0.10;;;20.20;53.90;;;;;;5045862;28;20059;-47
2021/12/04 00:23:57;;;;;;;0.40;0.10;;;20.20;53.80;;;;;;5045252;28;20517;-50
2021/12/04 00:26:24;;;;;;;0.40;0.00;;;20.30;53.90;;;;;;5043092;28;20033;-53
2021/12/04 00:28:51;;;;;;;4.35;0.10;;;20.30;54.00;;;;;;5044426;28;20051;-52
2021/12/04 00:31:18;;;;;;;0.10;0.10;;;20.30;53.90;;;;;;5045850;28;20055;-49
2021/12/04 00:33:46;;;;;;;0.20;0.10;;;20.30;53.80;;;;;;5043872;28;20093;-49
2021/12/04 00:36:25;;;;;;;2.60;0.52;;;20.30;53.80;;;;;;5040931;28;20405;-47
2021/12/04 00:49:52;;;;;;;0.10;0.00;;;20.40;53.60;;;;;;5040028;28;20053;-48
2021/12/04 00:52:19;;;;;;;0.00;0.00;;;20.50;53.70;;;;;;5048230;28;20044;-49
2021/12/04 00:54:48;;;;;;;0.10;0.10;;;20.50;53.60;;;;;;5049380;28;20516;-50
2021/12/04 00:57:15;;;;;;;2.08;0.10;;;20.50;53.60;;;;;;5042406;28;20048;-49
2021/12/04 00:59:42;;;;;;;0.10;0.05;;;20.60;53.60;;;;;;5044632;28;20580;-48
2021/12/04 01:02:09;;;;;;;0.65;0.47;;;20.60;53.60;;;;;;5049610;28;20103;-51
2021/12/04 01:04:36;;;;;;;0.05;0.00;;;20.60;53.60;;;;;;5044227;28;20044;-51
2021/12/04 01:07:03;;;;;;;0.10;0.10;;;20.60;53.60;;;;;;5047733;28;20045;-51
2021/12/04 01:09:30;;;;;;;0.35;0.10;;;20.60;53.60;;;;;;5044386;28;20122;-49
2021/12/04 01:11:59;;;;;;;0.00;0.00;;;20.70;53.60;;;;;;5041428;28;20690;-48
2021/12/04 01:14:27;;;;;;;0.00;0.00;;;20.70;53.60;;;;;;5047208;28;20047;-46
2021/12/04 01:16:55;;;;;;;0.40;0.00;;;20.70;53.60;;;;;;5045119;28;20408;-49
2021/12/04 01:19:23;;;;;;;0.75;0.10;;;20.70;53.60;;;;;;5041819;28;20048;-51
2021/12/04 01:21:51;;;;;;;0.05;0.00;;;20.70;53.60;;;;;;5043211;28;20041;-53
2021/12/04 01:24:18;;;;;;;0.00;0.00;;;20.80;53.70;;;;;;5052024;28;20054;-48
2021/12/04 01:26:46;;;;;;;0.20;0.00;;;20.80;53.70;;;;;;5044296;28;20517;-48
2021/12/04 01:29:15;;;;;;;0.70;0.10;;;20.80;53.70;;;;;;5046409;28;20033;-49
2021/12/04 01:31:43;;;;;;;0.10;0.10;;;20.80;53.70;;;;;;5045918;28;20159;-49
2021/12/04 01:34:10;;;;;;;0.05;0.00;;;20.90;53.70;;;;;;5043385;28;20442;-52
2021/12/04 01:36:37;;;;;;;0.10;0.00;;;20.90;53.80;;;;;;5041888;28;20037;-50
2021/12/04 01:39:05;;;;;;;0.08;0.08;;;20.80;53.70;;;;;;5044018;28;20145;-49
2021/12/04 01:41:33;;;;;;;0.10;0.10;;;20.90;53.80;;;;;;5044054;28;20033;-53
2021/12/04 01:44:02;;;;;;;0.20;0.15;;;20.90;53.70;;;;;;5043551;28;20693;-46
2021/12/04 01:46:31;;;;;;;0.10;0.10;;;21.00;53.80;;;;;;5045372;28;20045;-47
2021/12/04 01:48:58;;;;;;;0.38;0.00;;;21.00;53.80;;;;;;5038739;28;20044;-47
2021/12/04 01:51:25;;;;;;;1.10;0.00;;;21.00;53.80;;;;;;5042803;28;20037;-51
2021/12/04 01:53:52;;;;;;;1.00;0.00;;;21.00;53.70;;;;;;5042710;28;20049;-49
2021/12/04 01:56:20;;;;;;;0.00;0.00;;;21.00;53.70;;;;;;5040399;28;20529;-49
2021/12/04 01:58:47;;;;;;;0.05;0.00;;;21.00;53.80;;;;;;5041026;28;20112;-50
2021/12/04 02:01:14;;;;;;;0.00;0.00;;;21.00;53.70;;;;;;5042318;28;20040;-50
2021/12/04 02:03:42;;;;;;;0.00;0.00;;;21.00;53.70;;;;;;5042020;28;20041;-51
2021/12/04 02:06:09;;;;;;;0.00;0.00;;;21.10;53.70;;;;;;5047264;28;20037;-49
2021/12/04 02:08:36;;;;;;;0.30;0.00;;;21.00;53.60;;;;;;5043932;28;20037;-50
2021/12/04 02:11:03;;;;;;;0.00;0.00;;;21.10;53.60;;;;;;5049064;28;20041;-47
2021/12/04 02:13:30;;;;;;;0.00;0.00;;;21.10;53.60;;;;;;5050739;28;20049;-47
2021/12/04 02:16:01;;;;;;;0.13;0.00;;;21.10;53.60;;;;;;5043304;28;20045;-48
2021/12/04 02:18:28;;;;;;;0.00;0.00;;;21.10;54.10;;;;;;5039028;28;20459;-48
2021/12/04 02:20:57;;;;;;;0.10;0.00;;;21.10;53.50;;;;;;5042559;28;20041;-53
2021/12/04 02:23:24;;;;;;;0.00;0.00;;;21.10;53.40;;;;;;5050294;28;20051;-51
2021/12/04 02:25:51;;;;;;;0.00;0.00;;;21.10;53.40;;;;;;5040166;28;20048;-49
2021/12/04 02:28:18;;;;;;;0.00;0.00;;;21.10;53.30;;;;;;5043921;28;20049;-50
2021/12/04 02:30:47;;;;;;;0.00;0.00;;;21.10;53.30;;;;;;5041578;28;20407;-46
2021/12/04 02:33:16;;;;;;;0.00;0.00;;;21.20;53.20;;;;;;5043739;28;20048;-49
2021/12/04 02:35:47;;;;;;;0.00;0.00;;;21.20;53.70;;;;;;5040488;28;20052;-50
2021/12/04 02:38:15;;;;;;;0.00;0.00;;;21.20;53.10;;;;;;5035470;28;20044;-48
2021/12/04 02:40:44;;;;;;;0.00;0.00;;;21.20;53.00;;;;;;5043100;28;20871;-50
2021/12/04 02:43:11;;;;;;;0.20;0.10;;;21.20;53.00;;;;;;5045130;28;20603;-49
2021/12/04 02:45:38;;;;;;;0.00;0.00;;;21.20;52.90;;;;;;5045424;28;20040;-47
2021/12/04 02:48:05;;;;;;;0.00;0.00;;;21.20;52.80;;;;;;5040487;28;20115;-50
2021/12/04 02:50:33;;;;;;;0.00;0.00;;;21.20;52.80;;;;;;5043706;28;20061;-47
2021/12/04 02:53:00;;;;;;;0.00;0.00;;;21.20;52.70;;;;;;5040233;28;20053;-51
2021/12/04 02:55:28;;;;;;;0.00;0.00;;;21.20;52.60;;;;;;5041379;28;20052;-50
2021/12/04 02:57:55;;;;;;;0.40;0.10;;;21.20;52.60;;;;;;5035698;28;20045;-47
2021/12/04 03:00:24;;;;;;;0.00;0.00;;;21.20;52.60;;;;;;5041033;28;20513;-47
2021/12/04 03:02:51;;;;;;;0.00;0.00;;;21.20;52.50;;;;;;5038222;28;20060;-48
2021/12/04 03:05:23;;;;;;;0.00;0.00;;;21.20;52.50;;;;;;5044254;28;20211;-50
2021/12/04 03:07:51;;;;;;;1.20;0.00;;;21.30;52.40;;;;;;5038867;28;20472;-48
2021/12/04 03:10:18;;;;;;;0.00;0.00;;;21.30;52.40;;;;;;5045545;28;20052;-48
2021/12/04 03:12:46;;;;;;;0.35;0.00;;;21.30;52.30;;;;;;5042025;28;20049;-48
2021/12/04 03:15:13;;;;;;;0.00;0.00;;;21.30;52.20;;;;;;5044120;28;20064;-52
2021/12/04 03:17:41;;;;;;;0.00;0.00;;;21.30;52.20;;;;;;5039146;28;20045;-51
2021/12/04 03:20:10;;;;;;;0.22;0.00;;;21.30;52.10;;;;;;5047783;28;20135;-48
2021/12/04 03:22:39;;;;;;;0.75;0.10;;;21.30;52.20;;;;;;5049943;28;20126;-51
2021/12/04 03:25:08;;;;;;;0.00;0.00;;;21.30;52.10;;;;;;5047695;28;20819;-50
2021/12/04 03:27:35;;;;;;;0.32;0.00;;;21.30;52.10;;;;;;5039295;28;20462;-50
2021/12/04 03:30:07;;;;;;;0.00;0.00;;;21.30;52.00;;;;;;5041050;28;20167;-48
2021/12/04 03:40:56;;;;;;;0.60;0.00;;;21.30;51.90;;;;;;5046111;28;20059;-47
2021/12/04 03:43:23;;;;;;;0.00;0.00;;;21.30;51.90;;;;;;5050635;28;20056;-51
2021/12/04 03:45:57;;;;;;;0.00;0.00;;;21.30;51.80;;;;;;5045047;28;20049;-50
2021/12/04 03:51:09;;;;;;;0.38;0.38;;;21.40;51.80;;;;;;5044935;28;20558;-46
2021/12/04 03:53:36;;;;;;;0.00;0.00;;;21.40;51.70;;;;;;5047320;28;20041;-46
2021/12/04 03:56:04;;;;;;;0.22;0.00;;;21.40;51.70;;;;;;5042898;28;20059;-51
2021/12/04 03:58:31;;;;;;;4.55;0.00;;;21.40;51.60;;;;;;5042191;28;20362;-50
2021/12/04 04:00:59;;;;;;;0.32;0.10;;;21.40;51.60;;;;;;5047548;28;20040;-48
2021/12/04 04:03:27;;;;;;;0.03;0.00;;;21.40;51.60;;;;;;5045259;28;20210;-52
2021/12/04 04:05:54;;;;;;;0.00;0.00;;;21.40;51.50;;;;;;5046421;28;20595;-47
2021/12/04 04:08:21;;;;;;;0.00;0.00;;;21.40;51.50;;;;;;5046439;28;20040;-46
2021/12/04 04:10:50;;;;;;;0.30;0.10;;;21.40;51.40;;;;;;5039760;28;20049;-48
2021/12/04 04:13:17;;;;;;;0.52;0.00;;;21.40;51.40;;;;;;5048824;28;20152;-45
2021/12/04 04:15:44;;;;;;;1.33;0.00;;;21.30;51.40;;;;;;5042090;28;20041;-46
2021/12/04 04:18:12;;;;;;;0.00;0.00;;;21.30;51.40;;;;;;5043558;28;20052;-46
2021/12/04 04:20:39;;;;;;;0.00;0.00;;;21.30;51.40;;;;;;5052045;28;20767;-47
2021/12/04 04:23:06;;;;;;;0.00;0.00;;;21.30;51.40;;;;;;5048377;28;20048;-49
2021/12/04 04:25:33;;;;;;;0.00;0.00;;;21.30;51.40;;;;;;5049869;28;20194;-53
2021/12/04 04:28:00;;;;;;;0.00;0.00;;;21.30;51.40;;;;;;5042054;28;20536;-49
2021/12/04 04:30:28;;;;;;;0.00;0.00;;;21.30;51.40;;;;;;5051298;28;20048;-50
2021/12/04 04:32:55;;;;;;;0.00;0.00;;;21.30;51.50;;;;;;5042726;28;20041;-52
2021/12/04 04:35:26;;;;;;;0.10;0.00;;;21.30;51.40;;;;;;5052599;28;20041;-53
2021/12/04 04:38:01;;;;;;;0.22;0.00;;;21.30;51.40;;;;;;5044949;28;20094;-48
2021/12/04 05:00:10;;;;;;;0.00;0.00;;;21.10;51.60;;;;;;4910787;29;20139;-47
2021/12/04 05:11:05;;;;;;;;;;;21.10;51.60;;;;;;4846016;29;20045;-46
2021/12/04 05:13:32;;;;;;;0.00;0.00;;;21.10;51.70;;;;;;4849172;29;19936;-46
2021/12/04 05:16:10;;;;;;;0.00;0.00;;;21.00;51.80;;;;;;4847767;29;20887;-49
2021/12/04 05:18:40;;;;;;;0.20;0.10;;;21.10;51.80;;;;;;4846173;29;20064;-53
2021/12/04 05:21:11;;;;;;;0.55;0.00;;;21.10;51.80;;;;;;4874031;29;20044;-47
2021/12/04 05:23:42;;;;;;;0.08;0.00;;;21.10;51.70;;;;;;4901727;29;20131;-53
2021/12/04 05:26:12;;;;;;;0.10;0.00;;;21.10;51.70;;;;;;4902858;29;20055;-51
2021/12/04 05:28:40;;;;;;;0.00;0.00;;;21.10;51.70;;;;;;4957686;28;20621;-52
2021/12/04 05:31:07;;;;;;;0.00;0.00;;;21.10;51.70;;;;;;4985172;28;20548;-53
2021/12/04 05:33:34;;;;;;;0.00;0.00;;;21.10;51.70;;;;;;4981207;28;20058;-49
2021/12/04 05:36:01;;;;;;;0.05;0.00;;;21.10;51.60;;;;;;4990105;28;20054;-49
2021/12/04 05:38:28;;;;;;;1.23;0.00;;;21.10;51.70;;;;;;4980868;28;20538;-53
2021/12/04 05:40:57;;;;;;;1.67;0.00;;;21.10;51.70;;;;;;4985611;28;20050;-54
2021/12/04 05:43:25;;;;;;;0.00;0.00;;;21.10;51.70;;;;;;5030569;28;20053;-52
2021/12/04 05:45:58;;;;;;;0.00;0.00;;;21.10;51.60;;;;;;5045686;28;20048;-56
2021/12/04 05:48:33;;;;;;;0.00;0.00;;;21.10;51.60;;;;;;5039323;28;20045;-46
2021/12/04 05:53:58;;;;;;;0.28;0.00;;;21.10;51.60;;;;;;5043205;28;20514;-51
2021/12/04 05:56:28;;;;;;;0.10;0.00;;;21.10;51.70;;;;;;5040677;28;20049;-48
2021/12/04 05:58:56;;;;;;;1.45;0.00;;;21.10;51.60;;;;;;5043242;28;20127;-47
2021/12/04 06:01:24;;;;;;;0.80;0.00;;;21.00;51.50;;;;;;5047594;28;20041;-45
2021/12/04 06:03:51;;;;;;;2.17;0.00;;;21.00;51.60;;;;;;5047559;28;20305;-45
2021/12/04 06:06:19;;;;;;;0.00;0.00;;;20.80;51.60;;;;;;5046983;28;20052;-44
2021/12/04 06:08:47;;;;;;;0.00;0.00;;;20.80;51.80;;;;;;5046483;28;20037;-44
2021/12/04 06:11:14;;;;;;;1.00;0.00;;;20.70;51.90;;;;;;5043428;28;20029;-44
2021/12/04 06:13:43;;;;;;;0.08;0.00;;;20.60;52.10;;;;;;5044589;28;20044;-44
2021/12/04 06:16:11;;;;;;;2.55;0.00;;;20.50;52.20;;;;;;5044057;28;20470;-44
2021/12/04 06:18:38;;;;;;;0.00;0.00;;;20.40;52.40;;;;;;5043414;28;20110;-44
2021/12/04 06:23:50;;;;;;;0.45;0.00;;;20.30;52.70;;;;;;5047620;28;20086;-48
2021/12/04 06:26:17;;;;;;;0.00;0.00;;;20.20;53.00;;;;;;5047124;28;20056;-47
2021/12/04 06:28:46;;;;;;;2.38;0.00;;;20.10;53.30;;;;;;5045999;28;20079;-47
2021/12/04 06:31:14;;;;;;;1.55;0.00;;;20.00;53.50;;;;;;5045649;28;20421;-45
2021/12/04 06:33:41;;;;;;;0.00;0.00;;;20.00;53.70;;;;;;5047043;28;20072;-50
2021/12/04 06:36:09;;;;;;;0.00;0.00;;;20.00;53.90;;;;;;5043137;28;20055;-48
2021/12/04 06:38:36;;;;;;;2.15;0.03;;;19.90;54.00;;;;;;5045532;28;20056;-46
2021/12/04 06:41:04;;;;;;;0.82;0.08;;;19.90;54.20;;;;;;5045693;28;20045;-46
2021/12/04 06:43:32;;;;;;;3.08;0.00;;;19.80;54.30;;;;;;5046519;28;20072;-51
2021/12/04 06:46:03;;;;;;;0.55;0.22;;;19.80;54.50;;;;;;5045383;28;20374;-48
2021/12/04 06:48:37;;;;;;;0.10;0.00;;;19.80;54.60;;;;;;5056350;28;20163;-46
2021/12/04 06:51:09;;;;;;;1.00;0.00;;;19.80;54.70;;;;;;5058947;28;20102;-48
2021/12/04 06:53:41;;;;;;;0.00;0.00;;;19.70;54.80;;;;;;5060129;28;20037;-50
2021/12/04 06:56:11;;;;;;;0.00;0.00;;;19.70;54.90;;;;;;5055222;28;20644;-46
2021/12/04 06:58:39;;;;;;;2.15;0.00;;;19.60;55.50;;;;;;5057875;28;20128;-50
2021/12/04 07:01:10;;;;;;;1.23;0.00;;;19.60;55.00;;;;;;5056004;28;20560;-49
2021/12/04 07:03:37;;;;;;;0.20;0.00;;;19.60;55.10;;;;;;5058455;28;20094;-47
2021/12/04 07:06:05;;;;;;;1.75;0.00;;;19.50;55.10;;;;;;5058785;28;20063;-50
2021/12/04 07:08:32;;;;;;;1.85;0.10;;;19.50;55.30;;;;;;5057028;28;20039;-46
2021/12/04 07:11:00;;;;;;;8.98;0.10;;;19.50;55.30;;;;;;5057296;28;20063;-46
2021/12/04 07:13:27;;;;;;;3.42;0.10;;;19.50;55.40;;;;;;5059654;28;20040;-43
2021/12/04 07:16:01;;;;;;;0.13;0.05;;;19.40;55.40;;;;;;5053155;28;20037;-51
2021/12/04 07:18:30;;;;;;;5.82;0.10;;;19.50;55.60;;;;;;5040962;28;20045;-51
2021/12/04 07:20:57;;;;;;;0.82;0.10;;;19.40;55.60;;;;;;5048584;28;20045;-47
2021/12/04 07:23:24;;;;;;;0.10;0.10;;;19.40;55.70;;;;;;5050963;28;20454;-49
2021/12/04 07:25:51;;;;;;;0.30;0.10;;;19.40;55.80;;;;;;5048820;28;20052;-47
2021/12/04 07:28:18;;;;;;;2.33;0.10;;;19.40;55.90;;;;;;5049950;28;20132;-49
2021/12/04 07:30:46;;;;;;;1.88;0.52;;;19.30;55.90;;;;;;5048428;28;20425;-49
2021/12/04 07:33:13;;;;;;;0.20;0.10;;;19.40;56.00;;;;;;5049152;28;20043;-47
2021/12/04 07:35:41;;;;;;;2.83;0.10;;;19.30;56.10;;;;;;5048713;28;20056;-51
2021/12/04 07:38:10;;;;;;;0.00;0.00;;;19.30;56.20;;;;;;5048778;28;20124;-47
2021/12/04 07:40:38;;;;;;;0.32;0.00;;;19.30;56.20;;;;;;5049054;28;20037;-47
2021/12/04 07:43:05;;;;;;;0.30;0.10;;;19.30;56.30;;;;;;5047446;28;20061;-50
2021/12/04 07:45:32;;;;;;;1.02;0.10;;;19.20;56.30;;;;;;5048735;28;20120;-47
2021/12/04 07:48:00;;;;;;;0.13;0.00;;;19.20;56.40;;;;;;5048871;28;20064;-47
2021/12/04 07:50:27;;;;;;;0.10;0.00;;;19.20;56.40;;;;;;5050092;28;20037;-47
2021/12/04 07:52:55;;;;;;;0.68;0.00;;;19.20;56.40;;;;;;5045508;28;20051;-47
2021/12/04 07:55:23;;;;;;;0.45;0.10;;;19.20;56.50;;;;;;5050854;28;20053;-50
2021/12/04 07:57:50;;;;;;;0.10;0.10;;;19.20;56.70;;;;;;5046587;28;20067;-45
2021/12/04 08:00:20;;;;;;;0.10;0.00;;;19.20;56.70;;;;;;5043620;28;20037;-46
2021/12/04 08:02:48;;;;;;;0.10;0.08;;;19.20;56.80;;;;;;5043703;28;20178;-45
2021/12/04 08:05:17;;;;;;;0.28;0.00;;;19.20;56.80;;;;;;5049677;28;20095;-45
2021/12/04 08:07:44;;;;;;;1.35;0.68;;;19.20;56.90;;;;;;5045064;28;20056;-44
2021/12/04 08:10:16;;;;;;;0.70;0.08;;;19.10;56.90;;;;;;5049799;28;20741;-45
2021/12/04 08:12:44;;;;;;;0.50;0.00;;;19.10;56.90;;;;;;5049379;28;20048;-49
2021/12/04 08:15:12;;;;;;;4.82;0.10;;;19.10;57.00;;;;;;5049909;28;20036;-46
2021/12/04 08:17:42;;;;;;;0.17;0.10;;;19.10;57.10;;;;;;5048032;28;20575;-48
2021/12/04 08:20:11;;;;;;;1.17;0.00;;;19.10;57.20;;;;;;5050139;28;20036;-47
2021/12/04 08:22:38;;;;;;;2.45;1.17;;;19.20;57.50;;;;;;5046849;28;20128;-48
2021/12/04 08:25:07;;;;;;;0.10;0.05;;;19.10;57.50;;;;;;5046945;28;20049;-49
2021/12/04 08:27:35;;;;;;;1.38;0.30;;;19.20;57.60;;;;;;5049333;28;20593;-49
2021/12/04 08:30:04;;;;;;;1.73;0.50;;;19.30;57.70;;;;;;5047790;28;20049;-50
2021/12/04 08:32:31;;;;;;;0.08;0.00;;;19.30;57.70;;;;;;5049146;28;20127;-52
2021/12/04 08:34:58;;;;;;;0.75;0.05;;;19.40;57.60;;;;;;5048052;28;20052;-53
2021/12/04 08:37:26;;;;;;;2.05;0.10;;;19.40;57.40;;;;;;5047934;28;20044;-53
2021/12/04 08:39:53;;;;;;;0.45;0.30;;;19.50;57.30;;;;;;5047484;28;20041;-52
2021/12/04 08:42:20;;;;;;;12.10;0.40;;;19.50;57.20;;;;;;5048554;28;20041;-52
2021/12/04 08:44:49;;;;;;;7.18;0.73;;;19.50;59.00;;;;;;5046669;28;20045;-52
2021/12/04 08:47:16;;;;;;;8.82;0.28;;;19.50;59.90;;;;;;5040472;28;20052;-53
2021/12/04 08:49:44;;;;;;;8.98;0.50;;;19.50;60.20;;;;;;5043641;28;20037;-52
2021/12/04 08:52:16;;;;;;;9.32;0.20;;;19.60;60.40;;;;;;5049186;28;20045;-51
2021/12/04 08:54:44;;;;;;;4.18;0.60;;;19.60;60.50;;;;;;5048590;28;20557;-50
2021/12/04 08:57:11;;;;;;;4.85;0.20;;;19.50;60.40;;;;;;5079036;28;20033;-53
2021/12/04 08:59:38;;;;;;;7.18;0.57;;;19.60;60.60;;;;;;5048836;28;20033;-49
2021/12/04 09:02:08;;;;;;;2.85;0.20;;;19.50;60.60;;;;;;5047111;28;20040;-51
2021/12/04 09:04:36;;;;;;;10.73;1.00;;;19.50;61.20;;;;;;5048380;28;20080;-47
2021/12/04 09:07:06;;;;;;;1.83;0.22;;;19.50;60.80;;;;;;5047852;28;20037;-52
2021/12/04 09:09:34;;;;;;;2.83;0.10;;;19.60;60.90;;;;;;5048292;28;20064;-53
2021/12/04 09:12:06;;;;;;;5.47;0.30;;;19.50;60.80;;;;;;5048507;28;20044;-51
2021/12/04 09:14:36;;;;;;;3.30;0.20;;;19.50;60.80;;;;;;5047700;28;20032;-47
2021/12/04 09:17:08;;;;;;;0.57;0.10;;;19.50;60.80;;;;;;5045854;28;20041;-51
2021/12/04 09:19:36;;;;;;;7.55;0.20;;;19.50;60.70;;;;;;5048089;28;20067;-47
2021/12/04 09:22:07;;;;;;;4.50;0.82;;;19.50;60.60;;;;;;5048423;28;20048;-47
2021/12/04 09:24:39;;;;;;;2.65;0.20;;;19.60;60.60;;;;;;5045692;28;20503;-48
2021/12/04 09:27:13;;;;;;;2.30;1.30;;;19.50;60.40;;;;;;5048048;28;20072;-48
2021/12/04 09:29:49;;;;;;;3.80;0.10;;;19.50;60.40;;;;;;5048085;28;20040;-48
2021/12/04 09:32:44;;;;;;;2.25;0.20;;;19.50;60.40;;;;;;5041742;28;20060;-46
2021/12/04 10:00:28;;;;;;;1.75;0.20;;;19.60;59.20;;;;;;5006092;28;20041;-66
2021/12/04 10:20:15;;;;;;;1.33;0.10;;;19.60;58.40;;;;;;5011145;28;20054;-66
2021/12/04 10:34:24;;;;;;;3.95;0.10;;;19.50;58.10;;;;;;5023735;28;20339;-65
2021/12/04 10:36:52;;;;;;;0.82;0.08;;;19.50;58.10;;;;;;5024134;28;20049;-66
2021/12/04 10:39:21;;;;;;;1.05;0.10;;;19.50;58.00;;;;;;5030982;28;20056;-64
2021/12/04 10:41:55;;;;;;;0.38;0.05;;;19.50;57.90;;;;;;5045357;28;20051;-64
2021/12/04 10:44:24;;;;;;;1.15;0.63;;;19.50;57.80;;;;;;5047332;28;20032;-65
2021/12/04 10:47:01;;;;;;;1.70;0.57;;;19.50;57.80;;;;;;5046328;28;20498;-65
2021/12/04 10:49:44;;;;;;;0.55;0.10;;;19.50;57.80;;;;;;5048735;28;20051;-65
2021/12/04 10:52:27;;;;;;;1.58;0.10;;;19.50;57.80;;;;;;5050386;28;20044;-66
2021/12/04 10:55:11;;;;;;;1.27;0.10;;;19.40;57.60;;;;;;5049429;28;20045;-66
2021/12/04 11:00:35;;;;;;;0.30;0.10;;;19.40;57.70;;;;;;5049706;28;20040;-65
2021/12/04 11:03:17;;;;;;;2.65;0.98;;;19.40;57.70;;;;;;5050131;28;20643;-66
2021/12/04 11:06:15;;;;;;;0.20;0.05;;;19.40;57.70;;;;;;5044228;28;20051;-66
2021/12/04 11:22:43;;;;;;;1.17;0.17;;;19.20;57.70;;;;;;5008448;28;20045;-66
2021/12/04 11:25:31;;;;;;;0.40;0.10;;;19.10;57.60;;;;;;5015302;28;20046;-65
2021/12/04 11:28:18;;;;;;;2.17;0.08;;;19.20;57.70;;;;;;5010949;28;20050;-66
2021/12/04 11:36:29;;;;;;;0.30;0.20;;;19.10;57.70;;;;;;5010774;28;20046;-66
2021/12/04 11:39:08;;;;;;;0.88;0.05;;;19.10;57.70;;;;;;5009569;28;20053;-66
2021/12/04 11:41:38;;;;;;;0.73;0.10;;;19.00;57.70;;;;;;5008927;28;20091;-67
2021/12/04 11:44:10;;;;;;;0.28;0.10;;;19.00;57.70;;;;;;5011130;28;29573;-66
2021/12/04 11:46:43;;;;;;;0.10;0.03;;;19.00;57.70;;;;;;5010898;28;20056;-66
2021/12/04 11:49:14;;;;;;;1.33;0.10;;;19.00;57.70;;;;;;5015958;28;20053;-66
2021/12/04 11:51:55;;;;;;;2.92;0.13;;;19.00;57.80;;;;;;5049519;28;20037;-66
2021/12/04 11:54:23;;;;;;;0.10;0.10;;;19.00;57.70;;;;;;5049546;28;20506;-66
2021/12/04 11:56:59;;;;;;;1.50;0.10;;;18.90;57.70;;;;;;5050251;28;20152;-67
2021/12/04 11:59:29;;;;;;;0.98;0.00;;;18.90;57.70;;;;;;5048815;28;20085;-66
2021/12/04 12:01:57;;;;;;;0.15;0.00;;;18.90;57.70;;;;;;5048822;28;20041;-66
2021/12/04 12:04:35;;;;;;;0.35;0.08;;;18.90;57.70;;;;;;5049222;28;20126;-66
2021/12/04 12:07:12;;;;;;;0.35;0.17;;;18.90;57.70;;;;;;5049198;28;20568;-67
2021/12/04 12:09:40;;;;;;;0.10;0.03;;;18.90;57.70;;;;;;5047978;28;20052;-66
2021/12/04 12:12:12;;;;;;;1.10;0.08;;;18.90;57.60;;;;;;5046574;28;20041;-66
2021/12/04 12:14:46;;;;;;;1.75;0.10;;;18.90;57.60;;;;;;5050123;28;20067;-66
2021/12/04 12:17:15;;;;;;;0.13;0.10;;;18.90;57.60;;;;;;5045879;28;20052;-66
2021/12/04 12:19:50;;;;;;;1.45;0.10;;;18.90;57.70;;;;;;5051970;28;20544;-66
2021/12/04 12:22:34;;;;;;;1.20;0.00;;;18.90;57.60;;;;;;5048949;28;20820;-66
2021/12/04 12:25:22;;;;;;;0.10;0.10;;;18.90;57.60;;;;;;5049540;28;20075;-66
2021/12/04 12:33:31;;;;;;;1.30;0.00;;;18.80;57.40;;;;;;5049560;28;20115;-65
2021/12/04 12:36:04;;;;;;;0.75;0.10;;;18.80;57.40;;;;;;5047749;28;20052;-66
2021/12/04 12:38:35;;;;;;;0.57;0.10;;;18.80;57.40;;;;;;5048832;28;20035;-66
2021/12/04 12:41:04;;;;;;;0.55;0.10;;;18.80;57.40;;;;;;5048963;28;20051;-65
2021/12/04 12:43:44;;;;;;;0.35;0.10;;;18.80;57.40;;;;;;5049597;28;20111;-66
2021/12/04 12:46:13;;;;;;;0.10;0.10;;;18.90;57.40;;;;;;5048289;28;20570;-66
2021/12/04 12:48:51;;;;;;;2.47;0.10;;;18.80;57.30;;;;;;5048311;28;20041;-66
2021/12/04 12:51:27;;;;;;;0.10;0.00;;;18.90;57.20;;;;;;5042820;28;20060;-65
2021/12/04 12:53:55;;;;;;;0.40;0.10;;;18.90;57.10;;;;;;5049659;28;20055;-66
2021/12/04 12:56:26;;;;;;;0.40;0.10;;;18.90;57.00;;;;;;5048415;28;20040;-66
2021/12/04 12:58:57;;;;;;;0.60;0.60;;;18.90;56.90;;;;;;5047040;28;20052;-67
2021/12/04 13:13:25;;;;;;;1.77;0.30;;;18.80;56.70;;;;;;5049046;28;20045;-65
2021/12/04 13:15:54;;;;;;;4.30;0.73;;;18.80;56.60;;;;;;5044894;28;20140;-64
2021/12/04 13:18:24;;;;;;;0.85;0.10;;;18.80;56.70;;;;;;5046923;28;20064;-66
2021/12/04 13:20:53;;;;;;;0.40;0.10;;;18.80;56.60;;;;;;5048416;28;20049;-66
2021/12/04 13:23:23;;;;;;;1.70;0.10;;;18.80;56.60;;;;;;5048052;28;20040;-66
2021/12/04 13:25:52;;;;;;;0.82;0.20;;;18.80;56.60;;;;;;5046596;28;20099;-65
2021/12/04 13:28:21;;;;;;;2.67;0.10;;;18.80;56.60;;;;;;5048178;28;20128;-66
2021/12/04 13:30:48;;;;;;;2.47;0.80;;;18.80;56.50;;;;;;5047883;28;20427;-65
2021/12/04 13:33:15;;;;;;;0.22;0.10;;;18.70;56.40;;;;;;5048028;28;20048;-65
2021/12/04 13:35:46;;;;;;;1.70;0.13;;;18.80;56.40;;;;;;5049005;28;20071;-65
2021/12/04 13:38:14;;;;;;;1.23;0.13;;;18.70;56.20;;;;;;5047882;28;20124;-65
2021/12/04 13:40:44;;;;;;;3.65;0.57;;;18.70;56.20;;;;;;5047049;28;20037;-66
2021/12/04 13:43:13;;;;;;;1.65;0.10;;;18.70;56.20;;;;;;5048441;28;20049;-65
2021/12/04 13:45:41;;;;;;;0.50;0.30;;;18.70;56.20;;;;;;5046061;28;20044;-65
2021/12/04 13:48:09;;;;;;;0.93;0.10;;;18.70;56.10;;;;;;5048696;28;20158;-66
2021/12/04 13:50:45;;;;;;;2.75;0.10;;;18.70;56.10;;;;;;5047916;28;20497;-65
2021/12/04 13:53:18;;;;;;;1.50;0.20;;;18.70;56.00;;;;;;5048281;28;20048;-65
2021/12/04 13:55:48;;;;;;;2.15;0.10;;;18.70;56.00;;;;;;5047160;28;20474;-66
2021/12/04 13:58:16;;;;;;;1.08;0.10;;;18.70;56.00;;;;;;5047848;28;20039;-66
2021/12/04 14:00:44;;;;;;;1.40;0.10;;;18.80;56.00;;;;;;5048029;28;20052;-66
2021/12/04 14:03:12;;;;;;;1.52;0.10;;;18.80;55.80;;;;;;5048227;28;20033;-66
2021/12/04 14:05:40;;;;;;;3.58;1.40;;;18.90;55.60;;;;;;5060285;28;20398;-66
2021/12/04 14:08:10;;;;;;;2.95;0.10;;;18.90;55.40;;;;;;5047096;28;20481;-65
2021/12/04 14:10:42;;;;;;;0.73;0.20;;;19.00;55.30;;;;;;5047417;28;20060;-65
2021/12/04 14:13:11;;;;;;;0.47;0.10;;;19.00;55.10;;;;;;5047843;28;20505;-65
2021/12/04 14:15:43;;;;;;;0.90;0.30;;;19.00;55.00;;;;;;5045716;28;20041;-65
2021/12/04 14:18:12;;;;;;;0.85;0.10;;;19.00;54.90;;;;;;5041353;28;20501;-65
2021/12/04 14:20:42;;;;;;;0.52;0.10;;;19.00;54.90;;;;;;5045113;28;20383;-65
2021/12/04 14:23:11;;;;;;;1.70;0.10;;;19.00;54.80;;;;;;5046196;28;20044;-65
2021/12/04 14:25:45;;;;;;;1.27;0.10;;;19.00;54.70;;;;;;5047151;28;20055;-65
2021/12/04 14:28:15;;;;;;;0.73;0.10;;;19.00;54.70;;;;;;5047481;28;20127;-65
2021/12/04 14:30:45;;;;;;;0.45;0.10;;;19.00;54.60;;;;;;5045361;28;20052;-65
2021/12/04 14:33:16;;;;;;;1.05;0.20;;;18.90;54.60;;;;;;5045876;28;20152;-65
2021/12/04 14:35:45;;;;;;;1.30;0.10;;;18.90;54.50;;;;;;5047325;28;20041;-65
2021/12/04 14:38:14;;;;;;;1.10;0.50;;;18.90;54.50;;;;;;5044727;28;20127;-65
2021/12/04 14:40:44;;;;;;;3.55;0.17;;;18.90;54.40;;;;;;5045808;28;20036;-65
2021/12/04 14:43:13;;;;;;;0.73;0.43;;;18.90;54.30;;;;;;5045463;28;20136;-65
2021/12/04 14:45:44;;;;;;;0.10;0.10;;;18.90;54.30;;;;;;5047027;28;20417;-65
2021/12/04 14:48:16;;;;;;;0.50;0.10;;;18.90;54.20;;;;;;5047157;28;20052;-65
2021/12/04 14:50:45;;;;;;;1.40;0.10;;;18.90;54.20;;;;;;5045014;28;20051;-65
2021/12/04 14:53:15;;;;;;;1.02;0.10;;;18.90;54.20;;;;;;5047145;28;20127;-64
2021/12/04 14:55:47;;;;;;;1.80;0.10;;;18.80;54.10;;;;;;5045929;28;20053;-65
2021/12/04 14:58:16;;;;;;;3.70;0.30;;;18.80;54.00;;;;;;5047474;28;20049;-65
2021/12/04 15:00:48;;;;;;;1.55;0.10;;;18.80;54.00;;;;;;5041405;28;20053;-65
2021/12/04 15:03:18;;;;;;;2.53;0.10;;;18.80;54.00;;;;;;5041492;28;20060;-65
2021/12/04 15:05:47;;;;;;;1.30;0.20;;;18.80;54.00;;;;;;5045834;28;20048;-65
2021/12/04 15:08:20;;;;;;;1.35;0.10;;;18.80;54.00;;;;;;5045602;28;20402;-65
2021/12/04 15:10:58;;;;;;;2.85;0.20;;;18.70;53.90;;;;;;5045475;28;20880;-65
2021/12/04 15:13:29;;;;;;;1.15;0.05;;;18.80;53.90;;;;;;5045420;28;20452;-65
2021/12/04 15:16:02;;;;;;;1.70;0.20;;;18.70;53.90;;;;;;5045190;28;20175;-65
2021/12/04 15:18:35;;;;;;;1.02;0.10;;;18.70;53.90;;;;;;5044825;28;20048;-65
2021/12/04 15:21:05;;;;;;;0.52;0.10;;;18.70;53.90;;;;;;5047314;28;20121;-65
2021/12/04 15:23:35;;;;;;;0.95;0.00;;;18.60;54.40;;;;;;5045535;28;20040;-65
2021/12/04 15:26:10;;;;;;;4.85;0.75;;;18.60;53.80;;;;;;5045108;28;20751;-65
2021/12/04 15:28:41;;;;;;;2.55;0.45;;;18.60;53.80;;;;;;5045086;28;20127;-65
2021/12/04 15:31:09;;;;;;;1.30;0.10;;;18.50;53.70;;;;;;5044652;28;20533;-65